Time;durP1;ratioP1;P1;durP2;ratioP2;P2;SDS_P1;SDS_P2;PMS_P1;PMS_P2;Temp;Humidity;BMP_temperature;BMP_pressure;BME280_temperature;BME280_humidity;BME280_pressure;Samples;Min_cycle;Max_cycle;Signal;HPM_P1;HPM_P2
2022/08/28 00:00:56;;;;;;;10.80;4.00;;;;;;;16.19;100.00;101771.06;5032164;28;20817;-88
2022/08/28 00:03:22;;;;;;;8.00;3.47;;;;;;;16.09;100.00;101762.66;5032496;28;20053;-88
2022/08/28 00:05:49;;;;;;;10.80;4.22;;;;;;;16.24;100.00;101786.72;5031809;28;20044;-88
2022/08/28 00:08:16;;;;;;;11.30;4.72;;;;;;;16.35;100.00;101791.53;5030905;28;20045;-88
2022/08/28 00:10:44;;;;;;;12.75;5.95;;;;;;;16.33;100.00;101795.06;5032068;28;20052;-88
2022/08/28 00:13:17;;;;;;;13.07;5.85;;;;;;;16.34;100.00;101793.28;5031882;28;20045;-88
2022/08/28 00:15:47;;;;;;;16.52;5.88;;;;;;;16.28;100.00;101788.28;5027927;28;20468;-89
2022/08/28 00:18:14;;;;;;;15.65;6.53;;;;;;;16.23;100.00;101788.47;5031278;28;20479;-88
2022/08/28 00:20:43;;;;;;;10.07;3.97;;;;;;;16.25;100.00;101767.28;5032486;28;20049;-88
2022/08/28 00:23:11;;;;;;;11.95;4.07;;;;;;;16.32;100.00;101772.25;5032769;28;20099;-88
2022/08/28 00:25:38;;;;;;;9.93;3.50;;;;;;;16.45;100.00;101777.81;5033087;28;20049;-88
2022/08/28 00:28:08;;;;;;;11.75;4.60;;;;;;;16.51;100.00;101796.03;5024745;28;20056;-88
2022/08/28 00:30:45;;;;;;;9.88;3.75;;;;;;;16.43;100.00;101781.44;5027226;28;20049;-88
2022/08/28 00:33:17;;;;;;;12.82;5.13;;;;;;;16.54;100.00;101783.59;5032655;28;20054;-88
2022/08/28 00:35:44;;;;;;;12.00;4.63;;;;;;;16.55;100.00;101777.38;5031072;28;20045;-87
2022/08/28 00:38:11;;;;;;;10.20;4.00;;;;;;;16.51;100.00;101780.16;5030485;28;20049;-88
2022/08/28 00:40:43;;;;;;;11.52;4.43;;;;;;;16.49;100.00;101783.81;5030870;28;20053;-87
2022/08/28 00:43:32;;;;;;;8.25;3.42;;;;;;;16.57;100.00;101783.47;5030781;28;20145;-87
2022/08/28 00:46:02;;;;;;;10.15;4.20;;;;;;;16.53;100.00;101795.97;5029140;28;20049;-89
2022/08/28 00:48:29;;;;;;;8.77;3.58;;;;;;;16.56;100.00;101793.19;5030894;28;20130;-88
2022/08/28 00:53:42;;;;;;;7.78;2.80;;;;;;;16.47;100.00;101791.81;5032236;28;20475;-88
2022/08/28 00:56:11;;;;;;;8.77;3.08;;;;;;;16.46;100.00;101789.25;5019238;28;20050;-87
2022/08/28 00:58:42;;;;;;;7.25;2.72;;;;;;;16.47;100.00;101783.03;5029615;28;20045;-88
2022/08/28 01:01:12;;;;;;;7.93;2.92;;;;;;;16.54;100.00;101787.13;5030449;28;20046;-88
2022/08/28 01:03:42;;;;;;;10.43;4.18;;;;;;;16.46;100.00;101792.72;5027615;28;20090;-88
2022/08/28 01:06:12;;;;;;;12.00;4.50;;;;;;;16.55;100.00;101804.69;5030380;28;20045;-88
2022/08/28 01:08:41;;;;;;;12.13;4.88;;;;;;;16.31;100.00;101802.22;5017268;28;20057;-88
2022/08/28 01:11:10;;;;;;;9.88;3.72;;;;;;;16.46;100.00;101805.94;5031325;28;20506;-88
2022/08/28 01:13:40;;;;;;;10.73;3.65;;;;;;;16.49;100.00;101799.69;5030583;28;20071;-87
2022/08/28 01:16:07;;;;;;;11.68;4.80;;;;;;;16.59;100.00;101797.47;5030866;28;20048;-88
2022/08/28 01:18:34;;;;;;;8.85;3.33;;;;;;;16.58;100.00;101806.34;5026136;28;20061;-88
2022/08/28 01:21:22;;;;;;;10.60;3.85;;;;;;;16.67;100.00;101806.75;5027554;28;20388;-88
2022/08/28 01:24:04;;;;;;;9.05;3.42;;;;;;;16.56;100.00;101810.84;5030351;28;20124;-88
2022/08/28 01:26:31;;;;;;;11.75;3.60;;;;;;;16.65;100.00;101807.78;5030610;28;20049;-88
2022/08/28 01:28:58;;;;;;;11.73;4.72;;;;;;;16.50;100.00;101789.03;5030245;28;20154;-87
2022/08/28 01:31:29;;;;;;;10.20;3.70;;;;;;;16.49;100.00;101800.53;5030948;28;20053;-89
2022/08/28 01:34:00;;;;;;;11.45;3.90;;;;;;;16.50;100.00;101804.03;5025917;28;20057;-88
2022/08/28 01:36:30;;;;;;;10.68;3.97;;;;;;;16.53;100.00;101806.53;5031053;28;20052;-88
2022/08/28 01:39:03;;;;;;;10.88;3.95;;;;;;;16.56;100.00;101806.41;5022877;28;20065;-89
2022/08/28 01:41:29;;;;;;;8.18;2.88;;;;;;;16.51;100.00;101803.09;5028084;28;20051;-89
2022/08/28 01:43:56;;;;;;;12.45;3.75;;;;;;;16.40;100.00;101758.66;5031003;28;20172;-87
2022/08/28 01:46:23;;;;;;;9.48;3.97;;;;;;;16.60;100.00;101786.81;5030549;28;20041;-87
2022/08/28 01:48:50;;;;;;;10.82;4.68;;;;;;;16.52;100.00;101797.75;5029680;28;20046;-87
2022/08/28 01:51:17;;;;;;;13.20;5.20;;;;;;;16.52;100.00;101795.13;5030210;28;20049;-88
2022/08/28 01:53:49;;;;;;;12.10;4.93;;;;;;;16.56;100.00;101805.56;5030443;28;20061;-87
2022/08/28 01:56:16;;;;;;;14.13;6.57;;;;;;;16.37;100.00;101774.66;5033746;28;20041;-87
2022/08/28 01:58:44;;;;;;;14.98;6.65;;;;;;;16.26;100.00;101775.16;5023969;28;20479;-87
2022/08/28 02:01:13;;;;;;;15.80;6.53;;;;;;;16.18;100.00;101776.41;5034626;28;20049;-88
2022/08/28 02:03:41;;;;;;;12.07;4.68;;;;;;;16.18;100.00;101785.19;5034746;28;20049;-87
2022/08/28 02:06:09;;;;;;;18.20;6.55;;;;;;;16.31;100.00;101802.22;5034379;28;20051;-87
2022/08/28 02:08:36;;;;;;;14.32;7.43;;;;;;;15.93;100.00;101759.84;5033073;28;20505;-88
2022/08/28 02:11:05;;;;;;;12.82;5.55;;;;;;;15.91;100.00;101774.91;5029615;28;20503;-88
2022/08/28 02:13:32;;;;;;;10.30;4.70;;;;;;;16.03;100.00;101813.16;5030413;28;20408;-88
2022/08/28 02:15:59;;;;;;;10.25;4.18;;;;;;;15.97;100.00;101805.50;5033759;28;20049;-87
2022/08/28 02:18:26;;;;;;;11.85;5.57;;;;;;;15.92;100.00;101794.28;5034332;28;20136;-88
2022/08/28 02:20:53;;;;;;;11.98;5.20;;;;;;;15.89;100.00;101794.41;5029572;28;20049;-87
2022/08/28 02:23:20;;;;;;;12.65;5.60;;;;;;;15.81;100.00;101813.22;5034109;28;20053;-87
2022/08/28 02:25:47;;;;;;;9.20;3.67;;;;;;;15.66;100.00;101774.22;5033905;28;20038;-87
2022/08/28 02:28:16;;;;;;;8.95;3.67;;;;;;;16.00;100.00;101817.72;5032796;28;20057;-87
2022/08/28 02:30:43;;;;;;;10.30;4.05;;;;;;;15.67;100.00;101791.78;5033175;28;20045;-87
2022/08/28 02:33:09;;;;;;;10.25;3.80;;;;;;;15.82;100.00;101814.94;5029663;28;20449;-88
2022/08/28 02:35:39;;;;;;;10.90;4.38;;;;;;;15.91;100.00;101824.25;5026881;28;20064;-87
2022/08/28 02:38:06;;;;;;;18.80;7.68;;;;;;;15.77;100.00;101808.97;5028511;28;20045;-88
2022/08/28 02:40:33;;;;;;;14.65;6.22;;;;;;;15.80;100.00;101798.28;5033657;28;20053;-88
2022/08/28 02:43:00;;;;;;;13.30;5.97;;;;;;;15.80;100.00;101794.81;5034212;28;20078;-88
2022/08/28 02:45:26;;;;;;;13.60;6.95;;;;;;;15.98;100.00;101795.78;5033265;28;20053;-88
2022/08/28 02:47:55;;;;;;;15.68;7.18;;;;;;;15.79;100.00;101785.16;5034111;28;20052;-88
2022/08/28 02:50:22;;;;;;;13.77;6.90;;;;;;;15.62;100.00;101776.16;5024493;28;20041;-88
2022/08/28 02:52:50;;;;;;;12.38;4.82;;;;;;;15.78;100.00;101775.53;5034103;28;20069;-88
2022/08/28 02:55:18;;;;;;;10.77;4.60;;;;;;;16.07;100.00;101816.50;5034529;28;20511;-89
2022/08/28 02:57:46;;;;;;;13.95;7.13;;;;;;;15.90;100.00;101798.75;5024897;28;20050;-87
2022/08/28 03:00:18;;;;;;;15.73;5.78;;;;;;;15.92;100.00;101816.25;5017045;28;20402;-88
2022/08/28 03:02:45;;;;;;;13.15;6.28;;;;;;;15.95;100.00;101804.69;5033189;28;20050;-88
2022/08/28 03:05:15;;;;;;;13.73;6.75;;;;;;;15.98;100.00;101807.19;5032512;28;20132;-88
2022/08/28 03:07:42;;;;;;;12.73;4.90;;;;;;;15.99;100.00;101816.84;5031944;28;20057;-87
2022/08/28 03:10:09;;;;;;;11.57;4.80;;;;;;;15.93;100.00;101817.94;5033006;28;20483;-88
2022/08/28 03:12:37;;;;;;;14.77;5.68;;;;;;;16.08;100.00;101827.03;5026129;28;20129;-88
2022/08/28 03:15:06;;;;;;;9.35;3.70;;;;;;;16.06;100.00;101815.66;5013262;28;20060;-88
2022/08/28 03:17:35;;;;;;;11.20;4.93;;;;;;;15.81;100.00;101794.75;5019649;28;20476;-88
2022/08/28 03:20:07;;;;;;;10.40;4.30;;;;;;;15.83;100.00;101802.56;5032101;28;20442;-88
2022/08/28 03:25:21;;;;;;;8.07;3.13;;;;;;;16.10;100.00;101841.00;5033978;28;20045;-87
2022/08/28 03:27:48;;;;;;;8.55;2.97;;;;;;;16.14;100.00;101817.97;5032843;28;20051;-89
2022/08/28 03:30:16;;;;;;;8.98;3.92;;;;;;;16.16;100.00;101824.03;5033349;28;20053;-89
2022/08/28 03:32:43;;;;;;;12.85;5.03;;;;;;;15.95;100.00;101817.91;5031303;28;20053;-88
2022/08/28 03:35:10;;;;;;;11.48;3.40;;;;;;;16.05;100.00;101813.94;5012355;28;20464;-88
2022/08/28 03:37:38;;;;;;;9.88;3.50;;;;;;;15.84;100.00;101799.03;5024212;28;20480;-88
2022/08/28 03:40:06;;;;;;;7.75;2.70;;;;;;;15.84;100.00;101777.91;5028721;28;20054;-88
2022/08/28 03:42:33;;;;;;;7.55;2.92;;;;;;;16.07;100.00;101816.50;5032487;28;20052;-88
2022/08/28 03:45:01;;;;;;;8.77;3.97;;;;;;;15.88;100.00;101796.19;5021818;28;20069;-87
2022/08/28 03:47:27;;;;;;;8.90;3.00;;;;;;;16.13;100.00;101810.97;5029048;28;20052;-88
2022/08/28 03:49:56;;;;;;;10.75;3.78;;;;;;;15.94;100.00;101787.13;5032547;28;20060;-88
2022/08/28 03:52:23;;;;;;;12.63;3.53;;;;;;;15.87;100.00;101790.97;5032046;28;20464;-88
2022/08/28 03:54:51;;;;;;;7.88;2.83;;;;;;;16.07;100.00;101824.44;5023807;28;20130;-88
2022/08/28 03:57:19;;;;;;;9.80;3.10;;;;;;;15.93;100.00;101803.91;5032076;28;20410;-88
2022/08/28 03:59:48;;;;;;;8.00;2.75;;;;;;;16.03;100.00;101815.78;5032038;28;20053;-88
2022/08/28 04:02:17;;;;;;;8.57;2.55;;;;;;;16.10;100.00;101814.59;5018913;28;20063;-88
2022/08/28 04:04:46;;;;;;;8.68;3.00;;;;;;;16.28;100.00;101826.13;5032294;28;20430;-88
2022/08/28 04:07:13;;;;;;;10.27;2.60;;;;;;;16.15;100.00;101814.41;5023566;28;20052;-88
2022/08/28 04:09:40;;;;;;;4.60;1.85;;;;;;;16.20;100.00;101825.63;5031228;28;20049;-88
2022/08/28 04:12:08;;;;;;;6.22;2.30;;;;;;;16.19;100.00;101813.34;5029766;28;20050;-88
2022/08/28 04:14:35;;;;;;;7.85;2.40;;;;;;;16.31;100.00;101827.81;5029297;28;20590;-88
2022/08/28 04:17:02;;;;;;;5.60;2.22;;;;;;;16.26;100.00;101816.56;5032582;28;20045;-89
2022/08/28 04:19:29;;;;;;;6.57;2.20;;;;;;;16.35;100.00;101818.81;5031151;28;20051;-89
2022/08/28 04:21:56;;;;;;;8.25;2.67;;;;;;;16.36;100.00;101825.81;5031655;28;20050;-88
2022/08/28 04:24:23;;;;;;;8.52;2.35;;;;;;;16.29;100.00;101825.22;5031835;28;20141;-88
2022/08/28 04:26:49;;;;;;;5.22;2.20;;;;;;;16.26;100.00;101816.56;5031102;28;20051;-88
2022/08/28 04:29:17;;;;;;;8.90;2.70;;;;;;;16.29;100.00;101834.94;5032132;28;20484;-89
2022/08/28 04:31:44;;;;;;;7.50;2.72;;;;;;;16.26;100.00;101833.28;5031877;28;20046;-88
2022/08/28 04:34:11;;;;;;;9.63;2.58;;;;;;;16.38;100.00;101831.88;5031539;28;20399;-89
2022/08/28 04:36:37;;;;;;;6.55;2.40;;;;;;;16.18;100.00;101808.97;5031677;28;20050;-88
2022/08/28 04:39:07;;;;;;;5.78;2.03;;;;;;;16.43;100.00;101839.59;5030254;28;20068;-88
2022/08/28 04:41:36;;;;;;;6.70;2.10;;;;;;;16.32;100.00;101819.81;5011301;28;20049;-88
2022/08/28 04:44:04;;;;;;;6.60;2.70;;;;;;;16.40;100.00;101837.97;5024395;28;20049;-88
2022/08/28 04:46:31;;;;;;;5.95;2.17;;;;;;;16.30;100.00;101831.34;5030968;28;20038;-88
2022/08/28 04:48:59;;;;;;;8.60;2.17;;;;;;;16.36;100.00;101833.75;5030453;28;20049;-88
2022/08/28 04:51:26;;;;;;;9.15;2.92;;;;;;;16.17;100.00;101801.13;5028263;28;20045;-88
2022/08/28 04:53:53;;;;;;;5.45;2.10;;;;;;;16.26;100.00;101812.13;5012478;28;20060;-88
2022/08/28 04:56:19;;;;;;;7.07;2.78;;;;;;;16.41;100.00;101818.50;5025992;28;20050;-88
2022/08/28 04:58:46;;;;;;;6.25;2.15;;;;;;;16.42;100.00;101825.53;5030785;28;20506;-87
2022/08/28 05:01:17;;;;;;;8.13;2.67;;;;;;;16.21;100.00;101818.56;5030929;28;20059;-87
2022/08/28 05:03:46;;;;;;;6.50;2.58;;;;;;;16.45;100.00;101840.38;5029623;28;20069;-87
2022/08/28 05:06:15;;;;;;;8.82;2.70;;;;;;;16.42;100.00;101827.31;5030275;28;20084;-87
2022/08/28 05:08:41;;;;;;;6.15;2.28;;;;;;;16.36;100.00;101836.38;5029644;28;20045;-87
2022/08/28 05:11:18;;;;;;;8.82;2.97;;;;;;;16.34;100.00;101848.78;5031856;28;20049;-87
2022/08/28 05:14:03;;;;;;;6.70;2.30;;;;;;;16.23;100.00;101841.34;5030852;28;20136;-88
2022/08/28 05:16:31;;;;;;;11.30;3.13;;;;;;;16.15;100.00;101827.63;5031548;28;20057;-89
2022/08/28 05:19:00;;;;;;;10.05;3.60;;;;;;;16.03;100.00;101834.28;5030069;28;20064;-88
2022/08/28 05:21:27;;;;;;;6.55;2.45;;;;;;;16.19;100.00;101825.69;5030168;28;20059;-88
2022/08/28 05:23:56;;;;;;;7.40;2.70;;;;;;;16.22;100.00;101831.72;5030316;28;20060;-88
2022/08/28 05:26:23;;;;;;;8.40;3.03;;;;;;;16.18;100.00;101813.41;5025417;28;20092;-88
2022/08/28 05:28:54;;;;;;;8.55;2.97;;;;;;;16.25;100.00;101833.34;5014953;28;20444;-88
2022/08/28 05:31:22;;;;;;;7.75;2.63;;;;;;;16.30;100.00;101840.13;5013475;28;20046;-88
2022/08/28 05:33:50;;;;;;;8.02;2.83;;;;;;;16.23;100.00;101829.91;5017364;28;20053;-88
2022/08/28 05:36:18;;;;;;;6.88;2.72;;;;;;;16.24;100.00;101831.66;5012571;28;20046;-88
2022/08/28 05:38:45;;;;;;;7.90;2.88;;;;;;;16.31;100.00;101831.28;5017000;28;21116;-88
2022/08/28 05:41:17;;;;;;;9.15;2.63;;;;;;;16.37;100.00;101824.03;5016785;28;20748;-88
2022/08/28 05:43:44;;;;;;;7.97;2.50;;;;;;;16.41;100.00;101820.31;5016782;28;20050;-88
2022/08/28 05:46:11;;;;;;;6.65;2.25;;;;;;;16.43;100.00;101832.53;5011468;28;20061;-88
2022/08/28 05:48:39;;;;;;;6.80;2.67;;;;;;;16.48;100.00;101834.97;5030362;28;20041;-88
2022/08/28 05:51:09;;;;;;;9.88;2.80;;;;;;;16.48;100.00;101843.78;5026841;28;20060;-89
2022/08/28 05:53:39;;;;;;;7.07;2.38;;;;;;;16.44;100.00;101849.25;5010924;28;20416;-89
2022/08/28 05:56:08;;;;;;;7.80;3.08;;;;;;;16.58;100.00;101853.94;5024029;28;20476;-89
2022/08/28 05:58:36;;;;;;;7.70;2.50;;;;;;;16.41;100.00;101842.31;5030178;28;20049;-89
2022/08/28 06:01:13;;;;;;;7.07;2.20;;;;;;;16.59;100.00;101863.56;5029879;28;20050;-88
2022/08/28 06:03:42;;;;;;;11.77;4.50;;;;;;;16.57;100.00;101865.41;5029669;28;20072;-88
2022/08/28 06:06:10;;;;;;;10.95;3.13;;;;;;;16.57;100.00;101852.19;5029978;28;20100;-88
2022/08/28 06:08:39;;;;;;;8.05;2.65;;;;;;;16.70;100.00;101863.94;5029377;28;20049;-88
2022/08/28 06:11:26;;;;;;;8.55;3.13;;;;;;;16.76;100.00;101855.72;5011969;28;20504;-88
2022/08/28 06:13:59;;;;;;;9.35;3.30;;;;;;;16.90;100.00;101865.69;5016642;28;20045;-88
2022/08/28 06:16:28;;;;;;;8.20;3.08;;;;;;;16.95;100.00;101873.44;5029330;28;20496;-88
2022/08/28 06:18:56;;;;;;;10.18;3.50;;;;;;;16.76;100.00;101854.88;5029727;28;20132;-88
2022/08/28 06:21:23;;;;;;;7.78;3.38;;;;;;;16.82;100.00;101849.28;5029774;28;20053;-88
2022/08/28 06:23:50;;;;;;;8.48;3.50;;;;;;;16.63;100.00;101830.78;5027552;28;20071;-88
2022/08/28 06:26:17;;;;;;;10.00;3.72;;;;;;;16.51;100.00;101846.25;5020516;28;20152;-88
2022/08/28 06:28:44;;;;;;;12.50;5.10;;;;;;;16.73;100.00;101861.13;5028357;28;20124;-88
2022/08/28 06:31:11;;;;;;;9.93;3.35;;;;;;;16.83;100.00;101883.63;5031891;28;20057;-88
2022/08/28 06:33:52;;;;;;;10.77;4.80;;;;;;;16.58;100.00;101851.28;5030901;28;20053;-88
2022/08/28 06:36:19;;;;;;;11.88;4.30;;;;;;;16.45;100.00;101821.88;5022615;28;20088;-89
2022/08/28 06:38:46;;;;;;;10.60;4.15;;;;;;;16.74;100.00;101841.72;5027373;28;20402;-89
2022/08/28 06:41:14;;;;;;;9.02;3.58;;;;;;;16.70;100.00;101853.38;5026240;28;20054;-89
2022/08/28 06:43:41;;;;;;;11.45;4.47;;;;;;;16.81;100.00;101855.53;5027585;28;20436;-88
2022/08/28 06:46:08;;;;;;;9.25;4.40;;;;;;;16.86;100.00;101853.56;5030707;28;20050;-88
2022/08/28 06:48:35;;;;;;;10.85;4.10;;;;;;;16.93;100.00;101832.94;5031154;28;20045;-89
2022/08/28 06:51:06;;;;;;;8.32;3.92;;;;;;;17.25;100.00;101881.72;5027941;28;20053;-88
2022/08/28 06:53:33;;;;;;;11.55;4.55;;;;;;;17.14;100.00;101889.28;5020550;28;20419;-89
2022/08/28 06:56:06;;;;;;;12.10;5.75;;;;;;;17.13;100.00;101875.22;5033641;28;20053;-88
2022/08/28 06:58:39;;;;;;;8.75;3.67;;;;;;;17.19;100.00;101879.34;5033122;28;20053;-89
2022/08/28 07:01:14;;;;;;;11.13;4.55;;;;;;;17.34;100.00;101889.22;5021485;28;20134;-90
2022/08/28 07:03:42;;;;;;;9.50;3.28;;;;;;;17.50;100.00;101901.72;5033910;28;20049;-89
2022/08/28 07:06:11;;;;;;;11.32;4.40;;;;;;;17.37;100.00;101867.03;5030659;28;20054;-88
2022/08/28 07:08:40;;;;;;;9.43;3.58;;;;;;;17.38;100.00;101889.94;5032701;28;20048;-87
2022/08/28 07:11:20;;;;;;;7.97;2.95;;;;;;;17.62;100.00;101911.72;5033564;28;20045;-88
2022/08/28 07:13:52;;;;;;;7.70;2.60;;;;;;;17.66;100.00;101910.63;5033923;28;20045;-89
2022/08/28 07:16:21;;;;;;;5.80;1.92;;;;;;;17.61;100.00;101892.31;5033952;28;20508;-88
2022/08/28 07:18:50;;;;;;;6.65;1.90;;;;;;;17.27;100.00;101864.81;5020677;28;20133;-88
2022/08/28 07:21:17;;;;;;;8.48;2.80;;;;;;;17.44;100.00;101884.31;5033991;28;20474;-88
2022/08/28 07:23:44;;;;;;;9.10;3.63;;;;;;;17.69;100.00;101899.03;5030898;28;20049;-89
2022/08/28 07:26:17;;;;;;;6.95;2.60;;;;;;;17.70;100.00;101877.75;5022823;28;20068;-88
2022/08/28 07:28:45;;;;;;;8.32;2.67;;;;;;;17.46;100.00;101856.84;5027638;28;20495;-88
2022/08/28 07:31:18;;;;;;;8.05;2.85;;;;;;;17.42;100.00;101878.25;5013459;28;20084;-87
2022/08/28 07:33:45;;;;;;;6.00;2.15;;;;;;;17.55;100.00;101892.63;5015745;28;20054;-88
2022/08/28 07:36:18;;;;;;;6.15;2.13;;;;;;;17.71;100.00;101924.50;5027842;28;20092;-88
2022/08/28 07:38:56;;;;;;;4.95;1.70;;;;;;;17.50;100.00;101923.75;5032558;28;20064;-89
2022/08/28 07:41:28;;;;;;;7.15;2.58;;;;;;;17.76;100.00;101929.56;5025286;28;20050;-88
2022/08/28 07:46:42;;;;;;;7.72;1.95;;;;;;;17.55;100.00;101913.81;5030457;28;20049;-88
2022/08/28 07:49:10;;;;;;;4.32;1.55;;;;;;;17.46;100.00;101923.06;5034350;28;20531;-88
2022/08/28 07:51:37;;;;;;;4.20;1.63;;;;;;;17.41;100.00;101901.22;5032973;28;20055;-88
2022/08/28 07:54:04;;;;;;;7.88;1.80;;;;;;;17.44;100.00;101909.03;5023157;28;20060;-88
2022/08/28 07:56:31;;;;;;;5.82;2.00;;;;;;;17.57;100.00;101921.69;5031176;28;20555;-89
2022/08/28 07:59:00;;;;;;;8.15;2.92;;;;;;;17.35;100.00;101912.13;5032799;28;20049;-88
2022/08/28 08:01:28;;;;;;;6.20;2.28;;;;;;;17.28;100.00;101892.13;5032580;28;20056;-88
2022/08/28 08:03:57;;;;;;;7.00;2.08;;;;;;;17.64;100.00;101947.78;5025650;28;20049;-88
2022/08/28 08:06:30;;;;;;;9.35;2.30;;;;;;;17.47;100.00;101894.78;5018207;28;20050;-88
2022/08/28 08:09:03;;;;;;;6.80;1.85;;;;;;;17.68;100.00;101900.81;5024457;28;20049;-88
2022/08/28 08:11:31;;;;;;;5.93;1.95;;;;;;;18.12;100.00;101960.53;5016064;28;20054;-88
2022/08/28 08:14:03;;;;;;;8.85;2.55;;;;;;;17.81;100.00;101933.72;5032312;28;20053;-88
2022/08/28 08:16:34;;;;;;;7.20;2.17;;;;;;;17.96;100.00;101966.59;5032586;28;20049;-88
2022/08/28 08:19:02;;;;;;;7.13;2.00;;;;;;;17.93;100.00;101928.78;5012959;28;20472;-88
2022/08/28 08:21:29;;;;;;;7.35;2.08;;;;;;;17.84;100.00;101922.97;5018456;28;20068;-88
2022/08/28 08:23:57;;;;;;;8.35;2.10;;;;;;;17.90;100.00;101900.66;5030834;28;20390;-88
2022/08/28 08:26:26;;;;;;;6.47;2.42;;;;;;;18.45;100.00;101963.28;5021638;28;20053;-88
2022/08/28 08:28:55;;;;;;;7.25;2.08;;;;;;;18.52;100.00;101954.06;5028162;28;20054;-87
2022/08/28 08:31:28;;;;;;;6.18;2.20;;;;;;;18.77;100.00;101948.31;5019447;28;20389;-87
2022/08/28 08:34:00;;;;;;;7.72;1.92;;;;;;;18.83;100.00;101957.78;5030676;28;20091;-87
2022/08/28 08:36:28;;;;;;;5.68;2.10;;;;;;;18.83;100.00;101914.47;5018138;28;20045;-87
2022/08/28 08:38:55;;;;;;;7.53;1.80;;;;;;;19.11;100.00;101958.97;5021982;28;20041;-87
2022/08/28 08:41:37;;;;;;;7.68;1.90;;;;;;;19.01;100.00;101939.16;5025964;28;20048;-88
2022/08/28 08:44:23;;;;;;;4.63;1.75;;;;;;;19.15;100.00;101920.69;5025092;28;20059;-88
2022/08/28 08:47:37;;;;;;;5.93;1.85;;;;;;;20.19;100.00;101961.75;5020671;28;20458;-88
2022/08/28 08:50:12;;;;;;;6.13;2.10;;;;;;;19.93;100.00;101926.06;5004359;28;20054;-89
2022/08/28 08:52:45;;;;;;;6.07;2.00;;;;;;;19.78;100.00;101980.06;5013391;28;20050;-88
2022/08/28 08:55:13;;;;;;;4.95;1.85;;;;;;;19.73;100.00;101972.34;5011817;28;20060;-88
2022/08/28 08:57:43;;;;;;;5.18;1.75;;;;;;;19.59;100.00;101975.78;5026992;28;20136;-89
2022/08/28 09:00:16;;;;;;;4.55;1.55;;;;;;;19.62;100.00;101954.38;5020724;28;20057;-86
2022/08/28 09:03:07;;;;;;;4.82;1.60;;;;;;;19.68;100.00;101967.28;5023217;28;20049;-87
2022/08/28 09:06:01;;;;;;;4.38;1.30;;;;;;;19.97;100.00;101964.78;5034587;28;20133;-87
2022/08/28 09:08:44;;;;;;;4.82;1.33;;;;;;;19.85;100.00;101962.88;5013588;28;20052;-87
2022/08/28 09:11:46;;;;;;;6.43;1.75;;;;;;;20.18;100.00;101978.63;5011896;28;20137;-86
2022/08/28 09:14:28;;;;;;;4.88;1.52;;;;;;;20.15;100.00;101983.28;4932048;29;20459;-88
2022/08/28 09:16:56;;;;;;;4.93;1.58;;;;;;;19.90;100.00;101966.97;5003631;28;20068;-87
2022/08/28 09:19:23;;;;;;;4.85;1.50;;;;;;;19.70;100.00;101965.41;5013512;28;20058;-88
2022/08/28 09:21:51;;;;;;;5.75;1.60;;;;;;;19.63;100.00;101990.59;5011003;28;20050;-88
2022/08/28 09:24:28;;;;;;;4.18;1.50;;;;;;;19.60;100.00;101964.22;5028981;28;20053;-88
2022/08/28 09:27:31;;;;;;;4.22;1.40;;;;;;;19.39;100.00;101971.59;5021435;28;20687;-89
2022/08/28 09:30:05;;;;;;;3.33;1.17;;;;;;;19.43;100.00;101977.59;4963656;28;20057;-89
2022/08/28 09:32:43;;;;;;;4.38;1.40;;;;;;;19.38;100.00;101953.94;5021949;28;20042;-89
2022/08/28 09:35:24;;;;;;;5.35;1.63;;;;;;;19.70;100.00;101975.19;5017576;28;20059;-87
2022/08/28 09:37:50;;;;;;;5.82;1.77;;;;;;;19.69;100.00;101942.44;5042108;28;20408;-88
2022/08/28 09:40:23;;;;;;;5.18;1.70;;;;;;;19.54;100.00;101997.28;5019814;28;20452;-87
2022/08/28 09:43:26;;;;;;;5.07;1.80;;;;;;;19.57;100.00;101993.63;5015707;28;20120;-88
2022/08/28 09:45:59;;;;;;;3.85;1.40;;;;;;;20.13;100.00;101983.38;5026685;28;20060;-87
2022/08/28 09:48:42;;;;;;;4.95;1.42;;;;;;;20.30;100.00;101969.94;5023130;28;20046;-89
2022/08/28 09:51:21;;;;;;;6.32;1.73;;;;;;;20.28;100.00;101977.16;5017143;28;20388;-90
2022/08/28 09:53:50;;;;;;;6.13;1.40;;;;;;;20.90;100.00;101980.63;5025154;28;20453;-90
2022/08/28 09:56:32;;;;;;;4.75;1.40;;;;;;;21.08;100.00;101974.16;5028232;28;20050;-90
2022/08/28 09:59:02;;;;;;;4.82;1.70;;;;;;;20.76;100.00;101971.69;5024871;28;20443;-91
2022/08/28 10:01:40;;;;;;;5.28;1.50;;;;;;;21.08;100.00;101978.63;5026376;28;20050;-89
2022/08/28 10:04:10;;;;;;;5.45;1.58;;;;;;;21.28;100.00;101983.53;5020486;28;20049;-89
2022/08/28 10:06:38;;;;;;;8.05;1.48;;;;;;;20.30;100.00;101938.03;5015377;28;20049;-89
2022/08/28 10:09:46;;;;;;;5.15;1.70;;;;;;;21.01;100.00;101965.69;5017451;28;20457;-89
2022/08/28 10:12:34;;;;;;;6.10;1.50;;;;;;;21.36;100.00;101983.09;5007758;28;20045;-87
2022/08/28 10:15:07;;;;;;;5.55;1.73;;;;;;;21.07;100.00;101987.56;5028261;28;20415;-87
2022/08/28 10:17:47;;;;;;;7.57;2.03;;;;;;;21.20;100.00;101977.88;5032220;28;20037;-89
2022/08/28 10:20:32;;;;;;;6.22;1.92;;;;;;;21.00;100.00;101987.97;5027808;28;20487;-88
2022/08/28 10:23:05;;;;;;;4.70;1.55;;;;;;;20.90;100.00;102001.94;5016617;28;20078;-88
2022/08/28 10:25:35;;;;;;;6.32;2.00;;;;;;;20.91;100.00;102006.28;5023900;28;20054;-88
2022/08/28 10:28:17;;;;;;;7.85;1.80;;;;;;;21.46;100.00;102005.56;5030374;28;20056;-88
2022/08/28 10:30:59;;;;;;;5.80;1.73;;;;;;;21.02;100.00;102003.84;5022252;28;20120;-88
2022/08/28 10:33:52;;;;;;;5.90;1.30;;;;;;;20.81;100.00;101990.88;5022088;28;20084;-88
2022/08/28 10:36:28;;;;;;;6.80;1.52;;;;;;;21.13;100.00;101982.72;5029716;28;20049;-88
2022/08/28 10:39:29;;;;;;;7.75;1.70;;;;;;;20.60;100.00;101970.88;5028496;28;20045;-87
2022/08/28 10:42:02;;;;;;;6.13;1.75;;;;;;;20.47;100.00;101950.31;5021312;28;20079;-88
2022/08/28 10:44:35;;;;;;;;;;;;;;;21.30;100.00;102005.63;5021837;28;20057;-88
2022/08/28 10:47:04;;;;;;;5.20;1.40;;;;;;;20.73;100.00;101958.56;5039751;28;19928;-88
2022/08/28 10:49:36;;;;;;;4.93;1.42;;;;;;;20.42;100.00;102000.28;5032574;28;20051;-88
2022/08/28 10:52:11;;;;;;;4.93;1.55;;;;;;;19.78;100.00;101988.06;5022301;28;20049;-89
2022/08/28 10:54:41;;;;;;;2.47;1.00;;;;;;;20.29;100.00;102008.13;5033887;28;20045;-88
2022/08/28 10:57:16;;;;;;;8.20;1.67;;;;;;;20.43;100.00;102009.13;5039912;28;20053;-88
2022/08/28 10:59:47;;;;;;;6.43;1.90;;;;;;;20.07;100.00;101995.22;5026963;28;20061;-87
2022/08/28 11:02:18;;;;;;;5.55;1.63;;;;;;;20.13;100.00;101982.53;5035125;28;20045;-88
2022/08/28 11:04:46;;;;;;;5.65;1.42;;;;;;;20.37;100.00;102010.34;5033420;28;20049;-87
2022/08/28 11:07:23;;;;;;;5.15;1.70;;;;;;;20.53;100.00;101996.97;5033577;28;20144;-89
2022/08/28 11:09:50;;;;;;;4.90;1.45;;;;;;;20.95;100.00;102010.50;5019096;28;20056;-87
2022/08/28 11:12:18;;;;;;;4.90;1.23;;;;;;;21.20;100.00;102008.00;5022115;28;20049;-88
2022/08/28 11:14:51;;;;;;;4.13;1.05;;;;;;;21.16;100.00;102002.97;5020993;28;20057;-88
2022/08/28 11:17:20;;;;;;;5.85;1.30;;;;;;;21.68;100.00;102018.34;5013511;28;20057;-87
2022/08/28 11:19:50;;;;;;;5.22;1.33;;;;;;;21.28;100.00;102023.50;5028236;28;20568;-86
2022/08/28 11:22:36;;;;;;;3.80;1.30;;;;;;;20.92;100.00;102021.31;5034487;28;20049;-88
2022/08/28 11:25:11;;;;;;;3.75;1.13;;;;;;;20.97;100.00;102024.56;5033520;28;20077;-87
2022/08/28 11:27:38;;;;;;;5.85;1.30;;;;;;;21.51;100.00;102010.56;5028965;28;20057;-87
2022/08/28 11:30:08;;;;;;;5.43;1.17;;;;;;;21.46;100.00;102026.00;5025697;28;20057;-87
2022/08/28 11:32:50;;;;;;;4.85;1.20;;;;;;;21.08;100.00;102023.91;5030232;28;20137;-87
2022/08/28 11:35:29;;;;;;;3.65;1.23;;;;;;;21.35;100.00;102008.84;5032999;28;20489;-87
2022/08/28 11:37:57;;;;;;;4.82;1.40;;;;;;;20.88;100.00;101963.91;5023163;28;20057;-87
2022/08/28 11:40:30;;;;;;;6.55;1.40;;;;;;;21.12;100.00;102031.59;5030610;28;20841;-87